KSRR

Sierra Blanca Regional Airport

Ruidoso, New Mexico, USA
METAR KSRR 280115Z AUTO 22010G18KT 10SM CLR 25/M13 A3006 RMK AO2
Observed Flight Rules
May-28 @ 01:15 UTC (8 minutes ago) Visual Flight Rules
Wind Visibility Clouds
220° at 10 knots
 Gusting to 18 knots
10 miles
  • Clear skies
Temperatures Readings
Current 25°C / 77°F
Dewpoint -13°C / 9°F
Humidity 7%
Altimeter 30.06" Hg
Pressure 1018 hPa
Elevation 2076
METAR KSRR 280115Z AUTO 22010G18KT 10SM CLR 25/M13 A3006 RMK AO2
Observed Flight Rules
May-28 @ 01:15 UTC
(8 minutes ago)
VFR
Wind Visibility
220° at 10 knots
 Gusting to 18 knots
10 miles
Clouds
  • Clear skies
Temperature Dewpoint
25°C / 77°F -13°C / 9°F
Humidity Altimeter Pressure
7% 30.06" Hg 1018 hPa